sensor_id;sensor_type;location;lat;lon;timestamp;P1;durP1;ratioP1;P2;durP2;ratioP2
7707;SDS011;3896;48.758;8.888;2023-06-14T00:00:38;5.80;;;2.83;;
7707;SDS011;3896;48.758;8.888;2023-06-14T00:03:07;3.23;;;2.93;;
7707;SDS011;3896;48.758;8.888;2023-06-14T00:05:37;3.67;;;2.93;;
7707;SDS011;3896;48.758;8.888;2023-06-14T00:08:08;4.73;;;3.47;;
7707;SDS011;3896;48.758;8.888;2023-06-14T00:10:35;3.33;;;3.03;;
7707;SDS011;3896;48.758;8.888;2023-06-14T00:13:06;3.70;;;3.27;;
7707;SDS011;3896;48.758;8.888;2023-06-14T00:15:32;3.93;;;3.50;;
7707;SDS011;3896;48.758;8.888;2023-06-14T00:17:58;4.57;;;3.63;;
7707;SDS011;3896;48.758;8.888;2023-06-14T00:20:27;3.80;;;3.33;;
7707;SDS011;3896;48.758;8.888;2023-06-14T00:22:53;3.97;;;3.23;;
7707;SDS011;3896;48.758;8.888;2023-06-14T00:25:20;3.83;;;3.43;;
7707;SDS011;3896;48.758;8.888;2023-06-14T00:27:52;4.87;;;3.50;;
7707;SDS011;3896;48.758;8.888;2023-06-14T00:30:17;6.73;;;3.50;;
7707;SDS011;3896;48.758;8.888;2023-06-14T00:32:44;4.37;;;3.00;;
7707;SDS011;3896;48.758;8.888;2023-06-14T00:35:10;3.27;;;2.97;;
7707;SDS011;3896;48.758;8.888;2023-06-14T00:37:36;3.97;;;3.57;;
7707;SDS011;3896;48.758;8.888;2023-06-14T00:40:03;3.83;;;3.27;;
7707;SDS011;3896;48.758;8.888;2023-06-14T00:42:29;7.27;;;5.00;;
7707;SDS011;3896;48.758;8.888;2023-06-14T00:44:55;5.13;;;2.80;;
7707;SDS011;3896;48.758;8.888;2023-06-14T00:47:21;3.37;;;3.07;;
7707;SDS011;3896;48.758;8.888;2023-06-14T00:49:46;2.97;;;2.73;;
7707;SDS011;3896;48.758;8.888;2023-06-14T00:52:13;4.33;;;3.10;;
7707;SDS011;3896;48.758;8.888;2023-06-14T00:54:39;3.37;;;3.07;;
7707;SDS011;3896;48.758;8.888;2023-06-14T00:57:06;3.37;;;3.07;;
7707;SDS011;3896;48.758;8.888;2023-06-14T00:59:33;3.07;;;2.80;;
7707;SDS011;3896;48.758;8.888;2023-06-14T01:02:03;3.53;;;3.20;;
7707;SDS011;3896;48.758;8.888;2023-06-14T01:04:29;6.40;;;3.33;;
7707;SDS011;3896;48.758;8.888;2023-06-14T01:07:02;3.70;;;3.23;;
7707;SDS011;3896;48.758;8.888;2023-06-14T01:09:58;4.33;;;3.50;;
7707;SDS011;3896;48.758;8.888;2023-06-14T01:12:37;3.43;;;3.20;;
7707;SDS011;3896;48.758;8.888;2023-06-14T01:15:13;3.40;;;3.10;;
7707;SDS011;3896;48.758;8.888;2023-06-14T01:17:40;3.77;;;3.30;;
7707;SDS011;3896;48.758;8.888;2023-06-14T01:20:10;3.40;;;3.10;;
7707;SDS011;3896;48.758;8.888;2023-06-14T01:22:45;3.83;;;3.50;;
7707;SDS011;3896;48.758;8.888;2023-06-14T01:25:20;6.03;;;3.50;;
7707;SDS011;3896;48.758;8.888;2023-06-14T01:27:51;4.33;;;3.10;;
7707;SDS011;3896;48.758;8.888;2023-06-14T01:30:20;5.43;;;3.50;;
7707;SDS011;3896;48.758;8.888;2023-06-14T01:32:47;4.33;;;2.97;;
7707;SDS011;3896;48.758;8.888;2023-06-14T01:35:15;3.77;;;3.47;;
7707;SDS011;3896;48.758;8.888;2023-06-14T01:37:41;3.67;;;3.37;;
7707;SDS011;3896;48.758;8.888;2023-06-14T01:40:08;4.03;;;3.00;;
7707;SDS011;3896;48.758;8.888;2023-06-14T01:42:35;4.53;;;3.20;;
7707;SDS011;3896;48.758;8.888;2023-06-14T01:45:04;3.60;;;3.30;;
7707;SDS011;3896;48.758;8.888;2023-06-14T01:47:31;4.10;;;3.30;;
7707;SDS011;3896;48.758;8.888;2023-06-14T01:49:58;3.70;;;2.90;;
7707;SDS011;3896;48.758;8.888;2023-06-14T01:52:23;3.23;;;2.97;;
7707;SDS011;3896;48.758;8.888;2023-06-14T01:54:49;7.80;;;3.53;;
7707;SDS011;3896;48.758;8.888;2023-06-14T01:57:15;4.67;;;3.83;;
7707;SDS011;3896;48.758;8.888;2023-06-14T01:59:41;4.63;;;3.70;;
7707;SDS011;3896;48.758;8.888;2023-06-14T02:02:06;4.10;;;3.23;;
7707;SDS011;3896;48.758;8.888;2023-06-14T02:04:32;4.97;;;3.47;;
7707;SDS011;3896;48.758;8.888;2023-06-14T02:06:58;5.80;;;3.77;;
7707;SDS011;3896;48.758;8.888;2023-06-14T02:09:24;4.50;;;3.80;;
7707;SDS011;3896;48.758;8.888;2023-06-14T02:11:50;4.50;;;3.20;;
7707;SDS011;3896;48.758;8.888;2023-06-14T02:14:16;5.23;;;3.80;;
7707;SDS011;3896;48.758;8.888;2023-06-14T02:16:42;5.67;;;3.90;;
7707;SDS011;3896;48.758;8.888;2023-06-14T02:19:17;3.73;;;3.07;;
7707;SDS011;3896;48.758;8.888;2023-06-14T02:21:43;5.00;;;3.37;;
7707;SDS011;3896;48.758;8.888;2023-06-14T02:24:08;3.47;;;3.13;;
7707;SDS011;3896;48.758;8.888;2023-06-14T02:26:35;3.97;;;3.20;;
7707;SDS011;3896;48.758;8.888;2023-06-14T02:29:02;4.43;;;3.40;;
7707;SDS011;3896;48.758;8.888;2023-06-14T02:31:28;4.00;;;3.60;;
7707;SDS011;3896;48.758;8.888;2023-06-14T02:33:54;4.63;;;3.43;;
7707;SDS011;3896;48.758;8.888;2023-06-14T02:36:20;4.27;;;3.50;;
7707;SDS011;3896;48.758;8.888;2023-06-14T02:38:45;5.47;;;3.73;;
7707;SDS011;3896;48.758;8.888;2023-06-14T02:41:11;5.20;;;3.73;;
7707;SDS011;3896;48.758;8.888;2023-06-14T02:43:37;4.97;;;3.80;;
7707;SDS011;3896;48.758;8.888;2023-06-14T02:46:03;3.40;;;3.00;;
7707;SDS011;3896;48.758;8.888;2023-06-14T02:48:28;7.17;;;3.90;;
7707;SDS011;3896;48.758;8.888;2023-06-14T02:50:54;4.93;;;3.67;;
7707;SDS011;3896;48.758;8.888;2023-06-14T02:53:21;3.53;;;3.23;;
7707;SDS011;3896;48.758;8.888;2023-06-14T02:55:47;4.73;;;2.90;;
7707;SDS011;3896;48.758;8.888;2023-06-14T02:58:13;3.70;;;3.40;;
7707;SDS011;3896;48.758;8.888;2023-06-14T03:00:38;4.07;;;3.33;;
7707;SDS011;3896;48.758;8.888;2023-06-14T03:03:05;4.10;;;3.30;;
7707;SDS011;3896;48.758;8.888;2023-06-14T03:05:43;4.43;;;3.90;;
7707;SDS011;3896;48.758;8.888;2023-06-14T03:08:14;4.03;;;3.63;;
7707;SDS011;3896;48.758;8.888;2023-06-14T03:10:50;4.23;;;3.10;;
7707;SDS011;3896;48.758;8.888;2023-06-14T03:13:16;5.17;;;3.30;;
7707;SDS011;3896;48.758;8.888;2023-06-14T03:15:42;3.17;;;2.87;;
7707;SDS011;3896;48.758;8.888;2023-06-14T03:18:08;4.60;;;3.07;;
7707;SDS011;3896;48.758;8.888;2023-06-14T03:20:40;3.60;;;3.10;;
7707;SDS011;3896;48.758;8.888;2023-06-14T03:23:06;4.27;;;3.43;;
7707;SDS011;3896;48.758;8.888;2023-06-14T03:25:32;4.20;;;3.40;;
7707;SDS011;3896;48.758;8.888;2023-06-14T03:28:00;3.93;;;3.17;;
7707;SDS011;3896;48.758;8.888;2023-06-14T03:30:26;4.50;;;3.83;;
7707;SDS011;3896;48.758;8.888;2023-06-14T03:32:52;3.87;;;3.10;;
7707;SDS011;3896;48.758;8.888;2023-06-14T03:35:18;4.33;;;3.93;;
7707;SDS011;3896;48.758;8.888;2023-06-14T03:37:44;3.80;;;3.30;;
7707;SDS011;3896;48.758;8.888;2023-06-14T03:40:11;6.67;;;3.80;;
7707;SDS011;3896;48.758;8.888;2023-06-14T03:42:37;4.00;;;3.57;;
7707;SDS011;3896;48.758;8.888;2023-06-14T03:45:03;6.67;;;3.67;;
7707;SDS011;3896;48.758;8.888;2023-06-14T03:47:29;3.80;;;3.23;;
7707;SDS011;3896;48.758;8.888;2023-06-14T03:49:54;4.70;;;3.63;;
7707;SDS011;3896;48.758;8.888;2023-06-14T03:52:20;5.27;;;3.37;;
7707;SDS011;3896;48.758;8.888;2023-06-14T03:54:47;5.40;;;3.23;;
7707;SDS011;3896;48.758;8.888;2023-06-14T03:57:12;4.67;;;3.60;;
7707;SDS011;3896;48.758;8.888;2023-06-14T03:59:38;6.10;;;3.87;;
7707;SDS011;3896;48.758;8.888;2023-06-14T04:02:04;4.23;;;3.57;;
7707;SDS011;3896;48.758;8.888;2023-06-14T04:04:29;4.47;;;3.47;;
7707;SDS011;3896;48.758;8.888;2023-06-14T04:06:55;3.97;;;3.60;;
7707;SDS011;3896;48.758;8.888;2023-06-14T04:09:23;5.80;;;3.50;;
7707;SDS011;3896;48.758;8.888;2023-06-14T04:11:50;4.87;;;3.67;;
7707;SDS011;3896;48.758;8.888;2023-06-14T04:14:19;4.27;;;3.07;;
7707;SDS011;3896;48.758;8.888;2023-06-14T04:16:46;5.67;;;5.03;;
7707;SDS011;3896;48.758;8.888;2023-06-14T04:19:12;5.37;;;3.37;;
7707;SDS011;3896;48.758;8.888;2023-06-14T04:21:37;5.53;;;3.73;;
7707;SDS011;3896;48.758;8.888;2023-06-14T04:24:03;5.70;;;4.13;;
7707;SDS011;3896;48.758;8.888;2023-06-14T04:26:29;4.50;;;3.23;;
7707;SDS011;3896;48.758;8.888;2023-06-14T04:28:58;4.20;;;3.23;;
7707;SDS011;3896;48.758;8.888;2023-06-14T04:31:28;6.40;;;3.80;;
7707;SDS011;3896;48.758;8.888;2023-06-14T04:33:54;5.80;;;3.93;;
7707;SDS011;3896;48.758;8.888;2023-06-14T04:36:20;4.43;;;4.00;;
7707;SDS011;3896;48.758;8.888;2023-06-14T04:38:47;6.00;;;3.93;;
7707;SDS011;3896;48.758;8.888;2023-06-14T04:41:14;4.37;;;3.40;;
7707;SDS011;3896;48.758;8.888;2023-06-14T04:43:41;4.27;;;3.87;;
7707;SDS011;3896;48.758;8.888;2023-06-14T04:46:07;4.50;;;4.10;;
7707;SDS011;3896;48.758;8.888;2023-06-14T04:48:36;5.40;;;3.63;;
7707;SDS011;3896;48.758;8.888;2023-06-14T04:51:06;5.37;;;3.60;;
7707;SDS011;3896;48.758;8.888;2023-06-14T04:53:32;8.20;;;4.60;;
7707;SDS011;3896;48.758;8.888;2023-06-14T04:55:59;7.90;;;3.93;;
7707;SDS011;3896;48.758;8.888;2023-06-14T04:58:25;4.47;;;3.87;;
7707;SDS011;3896;48.758;8.888;2023-06-14T05:00:52;5.00;;;3.80;;
7707;SDS011;3896;48.758;8.888;2023-06-14T05:03:18;5.40;;;4.17;;
7707;SDS011;3896;48.758;8.888;2023-06-14T05:05:45;6.37;;;4.47;;
7707;SDS011;3896;48.758;8.888;2023-06-14T05:08:11;4.30;;;3.90;;
7707;SDS011;3896;48.758;8.888;2023-06-14T05:10:37;4.33;;;3.93;;
7707;SDS011;3896;48.758;8.888;2023-06-14T05:13:02;4.93;;;4.10;;
7707;SDS011;3896;48.758;8.888;2023-06-14T05:15:28;9.37;;;4.20;;
7707;SDS011;3896;48.758;8.888;2023-06-14T05:17:54;4.87;;;4.37;;
7707;SDS011;3896;48.758;8.888;2023-06-14T05:20:24;5.33;;;4.33;;
7707;SDS011;3896;48.758;8.888;2023-06-14T05:22:52;9.37;;;4.60;;
7707;SDS011;3896;48.758;8.888;2023-06-14T05:25:18;5.30;;;4.37;;
7707;SDS011;3896;48.758;8.888;2023-06-14T05:27:45;7.13;;;3.87;;
7707;SDS011;3896;48.758;8.888;2023-06-14T05:30:11;5.23;;;3.97;;
7707;SDS011;3896;48.758;8.888;2023-06-14T05:32:37;5.20;;;3.93;;
7707;SDS011;3896;48.758;8.888;2023-06-14T05:35:02;10.30;;;4.47;;
7707;SDS011;3896;48.758;8.888;2023-06-14T05:37:29;4.17;;;3.73;;
7707;SDS011;3896;48.758;8.888;2023-06-14T05:39:55;7.20;;;4.87;;
7707;SDS011;3896;48.758;8.888;2023-06-14T05:42:21;6.93;;;4.17;;
7707;SDS011;3896;48.758;8.888;2023-06-14T05:44:47;4.93;;;3.77;;
7707;SDS011;3896;48.758;8.888;2023-06-14T05:47:12;5.93;;;4.07;;
7707;SDS011;3896;48.758;8.888;2023-06-14T05:49:38;4.83;;;3.97;;
7707;SDS011;3896;48.758;8.888;2023-06-14T05:52:03;5.33;;;4.50;;
7707;SDS011;3896;48.758;8.888;2023-06-14T05:54:29;6.00;;;4.37;;
7707;SDS011;3896;48.758;8.888;2023-06-14T05:56:55;6.83;;;4.53;;
7707;SDS011;3896;48.758;8.888;2023-06-14T05:59:26;5.43;;;3.73;;
7707;SDS011;3896;48.758;8.888;2023-06-14T06:01:54;4.97;;;4.50;;
7707;SDS011;3896;48.758;8.888;2023-06-14T06:04:19;6.33;;;4.90;;
7707;SDS011;3896;48.758;8.888;2023-06-14T06:06:45;8.83;;;4.13;;
7707;SDS011;3896;48.758;8.888;2023-06-14T06:09:11;5.30;;;4.40;;
7707;SDS011;3896;48.758;8.888;2023-06-14T06:11:39;6.60;;;4.37;;
7707;SDS011;3896;48.758;8.888;2023-06-14T06:14:05;4.67;;;3.80;;
7707;SDS011;3896;48.758;8.888;2023-06-14T06:16:30;7.93;;;4.03;;
7707;SDS011;3896;48.758;8.888;2023-06-14T06:18:56;4.40;;;3.83;;
7707;SDS011;3896;48.758;8.888;2023-06-14T06:21:21;8.67;;;4.40;;
7707;SDS011;3896;48.758;8.888;2023-06-14T06:23:47;6.63;;;3.83;;
7707;SDS011;3896;48.758;8.888;2023-06-14T06:26:12;4.27;;;3.87;;
7707;SDS011;3896;48.758;8.888;2023-06-14T06:28:38;3.93;;;3.53;;
7707;SDS011;3896;48.758;8.888;2023-06-14T06:31:03;5.43;;;4.37;;
7707;SDS011;3896;48.758;8.888;2023-06-14T06:33:29;7.33;;;4.83;;
7707;SDS011;3896;48.758;8.888;2023-06-14T06:35:54;4.33;;;3.50;;
7707;SDS011;3896;48.758;8.888;2023-06-14T06:38:20;5.83;;;4.17;;
7707;SDS011;3896;48.758;8.888;2023-06-14T06:40:45;4.43;;;4.00;;
7707;SDS011;3896;48.758;8.888;2023-06-14T06:43:11;4.43;;;3.70;;
7707;SDS011;3896;48.758;8.888;2023-06-14T06:45:41;4.10;;;3.60;;
7707;SDS011;3896;48.758;8.888;2023-06-14T06:48:07;5.80;;;3.40;;
7707;SDS011;3896;48.758;8.888;2023-06-14T06:50:35;5.17;;;3.60;;
7707;SDS011;3896;48.758;8.888;2023-06-14T06:53:00;4.23;;;3.40;;
7707;SDS011;3896;48.758;8.888;2023-06-14T06:55:26;3.70;;;3.40;;
7707;SDS011;3896;48.758;8.888;2023-06-14T06:57:52;5.70;;;3.80;;
7707;SDS011;3896;48.758;8.888;2023-06-14T07:00:18;5.37;;;3.80;;
7707;SDS011;3896;48.758;8.888;2023-06-14T07:02:45;6.03;;;3.47;;
7707;SDS011;3896;48.758;8.888;2023-06-14T07:05:10;5.73;;;3.57;;
7707;SDS011;3896;48.758;8.888;2023-06-14T07:07:36;5.87;;;3.33;;
7707;SDS011;3896;48.758;8.888;2023-06-14T07:10:02;4.23;;;3.13;;
7707;SDS011;3896;48.758;8.888;2023-06-14T07:12:29;5.73;;;3.90;;
7707;SDS011;3896;48.758;8.888;2023-06-14T07:14:56;5.70;;;3.60;;
7707;SDS011;3896;48.758;8.888;2023-06-14T07:17:22;5.97;;;4.30;;
7707;SDS011;3896;48.758;8.888;2023-06-14T07:19:48;4.10;;;3.67;;
7707;SDS011;3896;48.758;8.888;2023-06-14T07:22:13;3.37;;;3.00;;
7707;SDS011;3896;48.758;8.888;2023-06-14T07:24:39;4.93;;;3.67;;
7707;SDS011;3896;48.758;8.888;2023-06-14T07:27:05;4.87;;;3.00;;
7707;SDS011;3896;48.758;8.888;2023-06-14T07:29:31;3.73;;;3.40;;
7707;SDS011;3896;48.758;8.888;2023-06-14T07:31:56;6.50;;;3.60;;
7707;SDS011;3896;48.758;8.888;2023-06-14T07:34:22;5.63;;;3.33;;
7707;SDS011;3896;48.758;8.888;2023-06-14T07:36:47;4.10;;;3.10;;
7707;SDS011;3896;48.758;8.888;2023-06-14T07:39:13;4.17;;;3.77;;
7707;SDS011;3896;48.758;8.888;2023-06-14T07:41:39;6.13;;;4.37;;
7707;SDS011;3896;48.758;8.888;2023-06-14T07:44:05;4.30;;;3.40;;
7707;SDS011;3896;48.758;8.888;2023-06-14T07:46:30;4.10;;;3.40;;
7707;SDS011;3896;48.758;8.888;2023-06-14T07:48:56;4.53;;;4.07;;
7707;SDS011;3896;48.758;8.888;2023-06-14T07:51:22;4.17;;;3.73;;
7707;SDS011;3896;48.758;8.888;2023-06-14T07:53:48;4.10;;;3.63;;
7707;SDS011;3896;48.758;8.888;2023-06-14T07:56:14;3.90;;;3.53;;
7707;SDS011;3896;48.758;8.888;2023-06-14T07:58:40;3.97;;;3.47;;
7707;SDS011;3896;48.758;8.888;2023-06-14T08:01:05;4.50;;;3.63;;
7707;SDS011;3896;48.758;8.888;2023-06-14T08:03:32;3.90;;;3.33;;
7707;SDS011;3896;48.758;8.888;2023-06-14T08:05:59;6.00;;;3.70;;
7707;SDS011;3896;48.758;8.888;2023-06-14T08:08:25;4.47;;;3.13;;
7707;SDS011;3896;48.758;8.888;2023-06-14T08:10:51;4.10;;;3.20;;
7707;SDS011;3896;48.758;8.888;2023-06-14T08:13:17;4.03;;;3.60;;
7707;SDS011;3896;48.758;8.888;2023-06-14T08:15:42;3.53;;;3.23;;
7707;SDS011;3896;48.758;8.888;2023-06-14T08:18:09;4.07;;;3.67;;
7707;SDS011;3896;48.758;8.888;2023-06-14T08:20:34;4.10;;;3.40;;
7707;SDS011;3896;48.758;8.888;2023-06-14T08:23:00;4.70;;;3.30;;
7707;SDS011;3896;48.758;8.888;2023-06-14T08:25:29;5.53;;;3.57;;
7707;SDS011;3896;48.758;8.888;2023-06-14T08:27:55;10.37;;;4.40;;
7707;SDS011;3896;48.758;8.888;2023-06-14T08:30:21;4.40;;;3.10;;
7707;SDS011;3896;48.758;8.888;2023-06-14T08:32:47;4.80;;;3.77;;
7707;SDS011;3896;48.758;8.888;2023-06-14T08:35:12;5.20;;;3.60;;
7707;SDS011;3896;48.758;8.888;2023-06-14T08:37:39;4.57;;;3.97;;
7707;SDS011;3896;48.758;8.888;2023-06-14T08:40:06;6.83;;;3.57;;
7707;SDS011;3896;48.758;8.888;2023-06-14T08:42:50;4.07;;;3.60;;
7707;SDS011;3896;48.758;8.888;2023-06-14T08:45:17;6.17;;;3.80;;
7707;SDS011;3896;48.758;8.888;2023-06-14T08:47:44;4.57;;;3.40;;
7707;SDS011;3896;48.758;8.888;2023-06-14T08:50:10;4.07;;;3.60;;
7707;SDS011;3896;48.758;8.888;2023-06-14T08:52:37;5.17;;;3.40;;
7707;SDS011;3896;48.758;8.888;2023-06-14T08:55:06;3.73;;;3.43;;
7707;SDS011;3896;48.758;8.888;2023-06-14T08:57:33;6.00;;;3.60;;
7707;SDS011;3896;48.758;8.888;2023-06-14T09:00:02;4.70;;;3.30;;
7707;SDS011;3896;48.758;8.888;2023-06-14T09:02:38;4.43;;;3.33;;
7707;SDS011;3896;48.758;8.888;2023-06-14T09:05:08;5.93;;;3.63;;
7707;SDS011;3896;48.758;8.888;2023-06-14T09:07:38;4.33;;;3.57;;
7707;SDS011;3896;48.758;8.888;2023-06-14T09:10:07;5.27;;;3.70;;
7707;SDS011;3896;48.758;8.888;2023-06-14T09:12:34;4.77;;;3.80;;
7707;SDS011;3896;48.758;8.888;2023-06-14T09:14:59;5.17;;;3.83;;
7707;SDS011;3896;48.758;8.888;2023-06-14T09:17:25;4.57;;;3.83;;
7707;SDS011;3896;48.758;8.888;2023-06-14T09:19:51;5.67;;;4.13;;
7707;SDS011;3896;48.758;8.888;2023-06-14T09:22:16;3.67;;;3.37;;
7707;SDS011;3896;48.758;8.888;2023-06-14T09:24:42;4.37;;;3.73;;
7707;SDS011;3896;48.758;8.888;2023-06-14T09:27:07;7.73;;;3.27;;
7707;SDS011;3896;48.758;8.888;2023-06-14T09:29:33;4.63;;;3.50;;
7707;SDS011;3896;48.758;8.888;2023-06-14T09:31:59;8.20;;;3.53;;
7707;SDS011;3896;48.758;8.888;2023-06-14T09:34:25;6.43;;;3.63;;
7707;SDS011;3896;48.758;8.888;2023-06-14T09:36:51;3.93;;;3.57;;
7707;SDS011;3896;48.758;8.888;2023-06-14T09:39:17;5.83;;;3.70;;
7707;SDS011;3896;48.758;8.888;2023-06-14T09:41:43;5.60;;;4.03;;
7707;SDS011;3896;48.758;8.888;2023-06-14T09:44:10;5.57;;;3.43;;
7707;SDS011;3896;48.758;8.888;2023-06-14T09:46:37;4.97;;;3.57;;
7707;SDS011;3896;48.758;8.888;2023-06-14T09:49:03;6.80;;;4.03;;
7707;SDS011;3896;48.758;8.888;2023-06-14T09:51:30;4.80;;;3.47;;
7707;SDS011;3896;48.758;8.888;2023-06-14T09:53:59;4.20;;;3.50;;
7707;SDS011;3896;48.758;8.888;2023-06-14T09:56:26;5.27;;;3.30;;
7707;SDS011;3896;48.758;8.888;2023-06-14T09:58:58;3.90;;;3.07;;
7707;SDS011;3896;48.758;8.888;2023-06-14T10:01:24;4.97;;;3.87;;
7707;SDS011;3896;48.758;8.888;2023-06-14T10:04:03;3.73;;;3.33;;
7707;SDS011;3896;48.758;8.888;2023-06-14T10:06:31;3.90;;;3.40;;
7707;SDS011;3896;48.758;8.888;2023-06-14T10:08:58;5.27;;;3.40;;
7707;SDS011;3896;48.758;8.888;2023-06-14T10:11:25;3.53;;;3.30;;
7707;SDS011;3896;48.758;8.888;2023-06-14T10:13:51;8.83;;;4.00;;
7707;SDS011;3896;48.758;8.888;2023-06-14T10:19:25;3.50;;;3.20;;
7707;SDS011;3896;48.758;8.888;2023-06-14T10:22:04;5.23;;;2.97;;
7707;SDS011;3896;48.758;8.888;2023-06-14T10:24:41;3.23;;;2.60;;
7707;SDS011;3896;48.758;8.888;2023-06-14T10:27:08;7.60;;;2.80;;
7707;SDS011;3896;48.758;8.888;2023-06-14T10:29:35;4.78;;;2.90;;
7707;SDS011;3896;48.758;8.888;2023-06-14T10:32:26;3.00;;;2.80;;
7707;SDS011;3896;48.758;8.888;2023-06-14T10:34:56;3.23;;;2.93;;
7707;SDS011;3896;48.758;8.888;2023-06-14T10:37:23;3.85;;;2.90;;
7707;SDS011;3896;48.758;8.888;2023-06-14T10:39:52;3.13;;;2.93;;
7707;SDS011;3896;48.758;8.888;2023-06-14T10:42:18;3.67;;;3.00;;
7707;SDS011;3896;48.758;8.888;2023-06-14T10:44:51;3.17;;;2.90;;
7707;SDS011;3896;48.758;8.888;2023-06-14T10:47:31;3.43;;;3.13;;
7707;SDS011;3896;48.758;8.888;2023-06-14T10:50:07;6.20;;;3.67;;
7707;SDS011;3896;48.758;8.888;2023-06-14T10:52:37;5.53;;;3.28;;
7707;SDS011;3896;48.758;8.888;2023-06-14T10:55:05;3.47;;;3.17;;
7707;SDS011;3896;48.758;8.888;2023-06-14T10:57:36;3.30;;;2.88;;
7707;SDS011;3896;48.758;8.888;2023-06-14T11:00:06;5.18;;;3.33;;
7707;SDS011;3896;48.758;8.888;2023-06-14T11:02:46;4.20;;;2.75;;
7707;SDS011;3896;48.758;8.888;2023-06-14T11:05:16;4.13;;;2.90;;
7707;SDS011;3896;48.758;8.888;2023-06-14T11:10:55;4.18;;;2.78;;
7707;SDS011;3896;48.758;8.888;2023-06-14T11:13:25;2.90;;;2.70;;
7707;SDS011;3896;48.758;8.888;2023-06-14T11:15:51;3.40;;;3.00;;
7707;SDS011;3896;48.758;8.888;2023-06-14T11:18:22;6.18;;;3.60;;
7707;SDS011;3896;48.758;8.888;2023-06-14T11:20:52;7.57;;;2.60;;
7707;SDS011;3896;48.758;8.888;2023-06-14T11:23:18;4.47;;;2.95;;
7707;SDS011;3896;48.758;8.888;2023-06-14T11:25:49;4.47;;;2.90;;
7707;SDS011;3896;48.758;8.888;2023-06-14T11:28:18;5.05;;;2.55;;
7707;SDS011;3896;48.758;8.888;2023-06-14T11:30:47;3.03;;;2.72;;
7707;SDS011;3896;48.758;8.888;2023-06-14T11:33:17;2.85;;;2.65;;
7707;SDS011;3896;48.758;8.888;2023-06-14T11:35:45;3.63;;;2.90;;
7707;SDS011;3896;48.758;8.888;2023-06-14T11:38:11;4.05;;;3.13;;
7707;SDS011;3896;48.758;8.888;2023-06-14T11:40:37;2.42;;;2.30;;
7707;SDS011;3896;48.758;8.888;2023-06-14T11:43:03;4.35;;;3.08;;
7707;SDS011;3896;48.758;8.888;2023-06-14T11:45:29;3.10;;;2.80;;
7707;SDS011;3896;48.758;8.888;2023-06-14T11:47:56;4.53;;;3.08;;
7707;SDS011;3896;48.758;8.888;2023-06-14T11:50:22;3.65;;;2.85;;
7707;SDS011;3896;48.758;8.888;2023-06-14T11:52:55;3.10;;;2.80;;
7707;SDS011;3896;48.758;8.888;2023-06-14T11:55:35;3.22;;;3.00;;
7707;SDS011;3896;48.758;8.888;2023-06-14T11:58:02;4.13;;;3.22;;
7707;SDS011;3896;48.758;8.888;2023-06-14T12:00:28;3.03;;;2.70;;
7707;SDS011;3896;48.758;8.888;2023-06-14T12:02:54;3.17;;;2.83;;
7707;SDS011;3896;48.758;8.888;2023-06-14T12:05:22;4.28;;;3.17;;
7707;SDS011;3896;48.758;8.888;2023-06-14T12:07:48;7.13;;;2.67;;
7707;SDS011;3896;48.758;8.888;2023-06-14T12:10:15;4.22;;;3.05;;
7707;SDS011;3896;48.758;8.888;2023-06-14T12:12:41;4.03;;;2.50;;
7707;SDS011;3896;48.758;8.888;2023-06-14T12:15:08;2.92;;;2.45;;
7707;SDS011;3896;48.758;8.888;2023-06-14T12:17:37;5.93;;;3.35;;
7707;SDS011;3896;48.758;8.888;2023-06-14T12:20:10;2.92;;;2.65;;
7707;SDS011;3896;48.758;8.888;2023-06-14T12:22:53;3.33;;;2.50;;
7707;SDS011;3896;48.758;8.888;2023-06-14T12:25:26;2.83;;;2.58;;
7707;SDS011;3896;48.758;8.888;2023-06-14T12:27:56;3.55;;;3.03;;
7707;SDS011;3896;48.758;8.888;2023-06-14T12:30:29;3.97;;;2.72;;
7707;SDS011;3896;48.758;8.888;2023-06-14T12:32:54;7.18;;;3.00;;
7707;SDS011;3896;48.758;8.888;2023-06-14T12:35:20;3.65;;;2.60;;
7707;SDS011;3896;48.758;8.888;2023-06-14T12:37:46;4.28;;;3.10;;
7707;SDS011;3896;48.758;8.888;2023-06-14T12:40:12;3.17;;;2.97;;
7707;SDS011;3896;48.758;8.888;2023-06-14T12:42:38;3.90;;;3.10;;
7707;SDS011;3896;48.758;8.888;2023-06-14T12:45:03;3.42;;;3.13;;
7707;SDS011;3896;48.758;8.888;2023-06-14T12:47:30;3.45;;;2.63;;
7707;SDS011;3896;48.758;8.888;2023-06-14T12:49:55;3.15;;;2.40;;
7707;SDS011;3896;48.758;8.888;2023-06-14T12:52:21;2.97;;;2.53;;
7707;SDS011;3896;48.758;8.888;2023-06-14T12:54:46;3.58;;;2.83;;
7707;SDS011;3896;48.758;8.888;2023-06-14T12:57:12;4.22;;;2.53;;
7707;SDS011;3896;48.758;8.888;2023-06-14T12:59:38;4.50;;;3.20;;
7707;SDS011;3896;48.758;8.888;2023-06-14T13:02:13;2.97;;;2.67;;
7707;SDS011;3896;48.758;8.888;2023-06-14T13:04:40;4.20;;;2.95;;
7707;SDS011;3896;48.758;8.888;2023-06-14T13:07:05;4.82;;;2.88;;
7707;SDS011;3896;48.758;8.888;2023-06-14T13:09:31;5.22;;;2.80;;
7707;SDS011;3896;48.758;8.888;2023-06-14T13:11:56;5.50;;;2.65;;
7707;SDS011;3896;48.758;8.888;2023-06-14T13:14:22;2.47;;;2.28;;
7707;SDS011;3896;48.758;8.888;2023-06-14T13:16:47;3.25;;;2.38;;
7707;SDS011;3896;48.758;8.888;2023-06-14T13:19:13;2.80;;;2.60;;
7707;SDS011;3896;48.758;8.888;2023-06-14T13:21:38;2.58;;;2.38;;
7707;SDS011;3896;48.758;8.888;2023-06-14T13:24:04;2.42;;;2.25;;
7707;SDS011;3896;48.758;8.888;2023-06-14T13:26:30;3.85;;;2.53;;
7707;SDS011;3896;48.758;8.888;2023-06-14T13:28:56;5.22;;;2.88;;
7707;SDS011;3896;48.758;8.888;2023-06-14T13:31:22;3.92;;;2.65;;
7707;SDS011;3896;48.758;8.888;2023-06-14T13:33:48;2.88;;;2.67;;
7707;SDS011;3896;48.758;8.888;2023-06-14T13:36:13;3.20;;;2.40;;
7707;SDS011;3896;48.758;8.888;2023-06-14T13:38:39;4.20;;;2.45;;
7707;SDS011;3896;48.758;8.888;2023-06-14T13:41:05;3.83;;;2.72;;
7707;SDS011;3896;48.758;8.888;2023-06-14T13:43:30;4.95;;;2.40;;
7707;SDS011;3896;48.758;8.888;2023-06-14T13:45:56;2.80;;;2.60;;
7707;SDS011;3896;48.758;8.888;2023-06-14T13:48:21;2.70;;;2.42;;
7707;SDS011;3896;48.758;8.888;2023-06-14T13:50:47;3.20;;;2.58;;
7707;SDS011;3896;48.758;8.888;2023-06-14T13:53:12;3.10;;;2.08;;
7707;SDS011;3896;48.758;8.888;2023-06-14T13:55:39;2.85;;;2.63;;
7707;SDS011;3896;48.758;8.888;2023-06-14T13:58:04;4.93;;;2.45;;
7707;SDS011;3896;48.758;8.888;2023-06-14T14:00:30;3.33;;;2.60;;
7707;SDS011;3896;48.758;8.888;2023-06-14T14:02:55;4.32;;;2.83;;
7707;SDS011;3896;48.758;8.888;2023-06-14T14:05:22;4.97;;;2.83;;
7707;SDS011;3896;48.758;8.888;2023-06-14T14:07:53;2.20;;;2.10;;
7707;SDS011;3896;48.758;8.888;2023-06-14T14:10:19;5.55;;;2.90;;
7707;SDS011;3896;48.758;8.888;2023-06-14T14:12:46;3.13;;;2.67;;
7707;SDS011;3896;48.758;8.888;2023-06-14T14:15:12;2.80;;;2.60;;
7707;SDS011;3896;48.758;8.888;2023-06-14T14:17:39;5.55;;;2.83;;
7707;SDS011;3896;48.758;8.888;2023-06-14T14:20:05;2.28;;;2.08;;
7707;SDS011;3896;48.758;8.888;2023-06-14T14:22:31;2.38;;;2.17;;
7707;SDS011;3896;48.758;8.888;2023-06-14T14:24:57;4.55;;;3.10;;
7707;SDS011;3896;48.758;8.888;2023-06-14T14:27:23;3.70;;;2.50;;
7707;SDS011;3896;48.758;8.888;2023-06-14T14:29:48;4.00;;;2.95;;
7707;SDS011;3896;48.758;8.888;2023-06-14T14:32:14;2.90;;;2.70;;
7707;SDS011;3896;48.758;8.888;2023-06-14T14:34:40;3.30;;;3.00;;
7707;SDS011;3896;48.758;8.888;2023-06-14T14:37:05;2.60;;;2.40;;
7707;SDS011;3896;48.758;8.888;2023-06-14T14:39:31;3.00;;;2.80;;
7707;SDS011;3896;48.758;8.888;2023-06-14T14:41:56;2.78;;;2.58;;
7707;SDS011;3896;48.758;8.888;2023-06-14T14:44:22;3.75;;;2.50;;
7707;SDS011;3896;48.758;8.888;2023-06-14T14:46:47;5.15;;;2.35;;
7707;SDS011;3896;48.758;8.888;2023-06-14T14:49:13;2.35;;;2.25;;
7707;SDS011;3896;48.758;8.888;2023-06-14T14:51:38;4.15;;;2.63;;
7707;SDS011;3896;48.758;8.888;2023-06-14T14:54:05;3.35;;;2.90;;
7707;SDS011;3896;48.758;8.888;2023-06-14T14:56:31;3.40;;;2.80;;
7707;SDS011;3896;48.758;8.888;2023-06-14T14:58:57;3.13;;;2.80;;
7707;SDS011;3896;48.758;8.888;2023-06-14T15:01:22;2.95;;;2.63;;
7707;SDS011;3896;48.758;8.888;2023-06-14T15:03:48;2.83;;;2.63;;
7707;SDS011;3896;48.758;8.888;2023-06-14T15:06:13;2.67;;;2.40;;
7707;SDS011;3896;48.758;8.888;2023-06-14T15:08:39;3.45;;;2.45;;
7707;SDS011;3896;48.758;8.888;2023-06-14T15:11:05;2.78;;;2.58;;
7707;SDS011;3896;48.758;8.888;2023-06-14T15:13:31;2.60;;;2.40;;
7707;SDS011;3896;48.758;8.888;2023-06-14T15:15:57;2.67;;;2.38;;
7707;SDS011;3896;48.758;8.888;2023-06-14T15:18:22;2.72;;;2.53;;
7707;SDS011;3896;48.758;8.888;2023-06-14T15:20:48;2.58;;;2.30;;